createdAt,value
2022-09-23T00:01:22.798Z,62.24
2022-09-23T00:03:50.909Z,62.27
2022-09-23T00:06:23.648Z,62.39
2022-09-23T00:08:52.300Z,65.50
2022-09-23T00:11:26.004Z,66.75
2022-09-23T00:13:58.569Z,63.50
2022-09-23T00:16:34.137Z,62.69
2022-09-23T00:19:03.826Z,62.29
2022-09-23T00:21:31.402Z,62.27
2022-09-23T00:23:59.129Z,64.33
2022-09-23T00:26:27.655Z,64.17
2022-09-23T00:28:55.258Z,63.41
2022-09-23T00:31:26.139Z,62.70
2022-09-23T00:33:59.320Z,62.42
2022-09-23T00:36:28.170Z,62.46
2022-09-23T00:38:56.575Z,62.67
2022-09-23T00:41:24.876Z,62.56
2022-09-23T00:43:55.489Z,62.28
2022-09-23T00:46:37.187Z,62.15
2022-09-23T00:49:18.327Z,62.14
2022-09-23T00:51:55.232Z,62.74
2022-09-23T00:54:27.418Z,63.31
2022-09-23T00:56:57.654Z,63.47
2022-09-23T00:59:26.378Z,66.76
2022-09-23T01:01:56.775Z,63.68
2022-09-23T01:04:26.903Z,63.09
2022-09-23T01:06:54.483Z,62.86
2022-09-23T01:09:22.797Z,62.62
2022-09-23T01:12:41.110Z,62.58
2022-09-23T01:15:21.828Z,62.41
2022-09-23T01:18:07.528Z,62.42
2022-09-23T01:21:24.461Z,63.40
2022-09-23T01:24:20.331Z,64.98
2022-09-23T01:49:52.743Z,65.85
2022-09-23T01:52:39.391Z,65.36
2022-09-23T01:55:09.941Z,65.03
2022-09-23T01:57:44.888Z,64.68
2022-09-23T02:00:16.684Z,64.55
2022-09-23T02:03:07.782Z,64.65
2022-09-23T02:05:44.195Z,64.73
2022-09-23T02:08:17.958Z,65.11
2022-09-23T02:10:52.880Z,65.08
2022-09-23T02:13:36.862Z,65.50
2022-09-23T02:16:12.913Z,65.58
2022-09-23T02:18:49.282Z,65.51
2022-09-23T02:21:20.355Z,65.28
2022-09-23T02:24:02.224Z,64.93
2022-09-23T02:26:45.832Z,64.98
2022-09-23T02:29:19.943Z,63.89
2022-09-23T02:31:53.760Z,63.86
2022-09-23T02:34:41.286Z,63.73
2022-09-23T02:37:35.277Z,63.14
2022-09-23T02:40:26.077Z,63.21
2022-09-23T02:43:02.831Z,63.73
2022-09-23T02:45:31.211Z,63.22
2022-09-23T02:48:10.952Z,63.28
2022-09-23T02:50:39.371Z,64.30
2022-09-23T02:53:07.704Z,63.38
2022-09-23T02:55:35.421Z,63.23
2022-09-23T02:58:05.535Z,62.79
2022-09-23T03:01:05.092Z,63.10
2022-09-23T03:04:05.166Z,63.66
2022-09-23T03:06:54.296Z,63.61
2022-09-23T03:09:41.495Z,64.01
2022-09-23T03:12:36.151Z,63.26
2022-09-23T03:15:25.317Z,63.24
2022-09-23T03:18:08.562Z,63.01
2022-09-23T03:20:51.427Z,63.29
2022-09-23T03:23:25.199Z,62.92
2022-09-23T03:25:56.054Z,63.41
2022-09-23T03:28:25.454Z,62.92
2022-09-23T03:30:54.832Z,62.95
2022-09-23T03:33:28.828Z,63.12
2022-09-23T03:36:27.226Z,63.14
2022-09-23T03:39:03.907Z,62.92
2022-09-23T03:41:52.792Z,63.55
2022-09-23T03:44:24.978Z,63.66
2022-09-23T03:46:52.912Z,63.57
2022-09-23T03:49:27.405Z,63.89
2022-09-23T03:51:56.031Z,63.94
2022-09-23T03:54:23.616Z,63.63
2022-09-23T03:56:51.236Z,64.71
2022-09-23T03:59:19.081Z,64.87
2022-09-23T04:01:46.593Z,64.48
2022-09-23T04:04:14.420Z,63.58
2022-09-23T04:06:41.993Z,63.35
2022-09-23T04:09:09.709Z,63.70
2022-09-23T04:11:37.600Z,63.89
2022-09-23T04:14:05.670Z,63.66
2022-09-23T04:16:33.212Z,63.57
2022-09-23T04:19:01.185Z,63.34
2022-09-23T04:21:31.602Z,63.06
2022-09-23T04:23:59.079Z,63.25
2022-09-23T04:26:27.175Z,63.71
2022-09-23T04:28:55.533Z,63.90
2022-09-23T04:31:26.044Z,63.44
2022-09-23T04:33:54.036Z,63.63
2022-09-23T04:36:22.029Z,64.53
2022-09-23T04:38:51.084Z,64.40
2022-09-23T04:41:19.708Z,64.46
2022-09-23T04:43:47.424Z,64.78
2022-09-23T04:46:15.955Z,64.36
2022-09-23T04:48:44.519Z,63.91
2022-09-23T04:51:13.613Z,64.38
2022-09-23T04:53:43.270Z,64.65
2022-09-23T04:56:14.968Z,64.57
2022-09-23T04:58:43.356Z,63.81
2022-09-23T05:01:14.079Z,63.94
2022-09-23T05:03:43.257Z,64.31
2022-09-23T05:06:13.880Z,65.03
2022-09-23T05:08:46.761Z,65.00
2022-09-23T05:11:14.580Z,65.65
2022-09-23T05:13:42.066Z,64.91
2022-09-23T05:16:12.579Z,64.61
2022-09-23T05:18:42.775Z,65.08
2022-09-23T05:21:12.437Z,64.83
2022-09-23T05:23:41.494Z,65.30
2022-09-23T05:26:11.657Z,64.81
2022-09-23T05:28:39.727Z,65.36
2022-09-23T05:31:19.312Z,65.09
2022-09-23T05:33:52.241Z,64.60
2022-09-23T05:36:21.628Z,64.35
2022-09-23T05:38:50.857Z,63.95
2022-09-23T05:41:21.432Z,63.71
2022-09-23T05:43:51.685Z,65.27
2022-09-23T05:46:24.979Z,63.98
2022-09-23T05:48:52.821Z,64.21
2022-09-23T05:51:27.511Z,65.19
2022-09-23T05:53:58.842Z,65.09
2022-09-23T05:56:28.084Z,64.52
2022-09-23T05:58:58.403Z,64.25
2022-09-23T06:01:28.490Z,64.07
2022-09-23T06:03:57.736Z,63.56
2022-09-23T06:06:42.406Z,63.82
2022-09-23T06:09:13.723Z,65.43
2022-09-23T06:11:41.686Z,64.70
2022-09-23T06:14:12.784Z,63.79
2022-09-23T06:16:40.858Z,65.34
2022-09-23T06:19:09.885Z,64.45
2022-09-23T06:21:40.506Z,65.67
2022-09-23T06:24:09.472Z,65.25
2022-09-23T06:26:38.334Z,63.95
2022-09-23T06:29:14.659Z,64.48
2022-09-23T06:31:43.469Z,64.76
2022-09-23T06:34:13.764Z,63.96
2022-09-23T06:36:45.407Z,66.01
2022-09-23T06:39:15.528Z,65.08
2022-09-23T06:41:46.392Z,65.28
2022-09-23T06:44:15.178Z,64.94
2022-09-23T06:46:43.839Z,65.33
2022-09-23T06:49:12.194Z,63.81
2022-09-23T06:51:40.284Z,63.53
2022-09-23T06:54:08.567Z,64.50
2022-09-23T06:56:39.228Z,63.19
2022-09-23T06:59:09.662Z,62.97
2022-09-23T07:01:38.253Z,62.77
2022-09-23T07:04:07.826Z,62.49
2022-09-23T07:06:35.796Z,63.09
2022-09-23T07:09:05.777Z,63.55
2022-09-23T07:11:33.781Z,62.47
2022-09-23T07:14:01.259Z,63.35
2022-09-23T07:16:29.224Z,63.28
2022-09-23T07:18:56.848Z,62.36
2022-09-23T07:21:24.486Z,63.02
2022-09-23T07:23:52.255Z,61.17
2022-09-23T07:26:20.575Z,61.48
2022-09-23T07:28:48.105Z,61.96
2022-09-23T07:31:26.006Z,61.62
2022-09-23T07:33:58.390Z,60.26
2022-09-23T07:36:27.951Z,58.91
2022-09-23T07:39:03.873Z,57.48
2022-09-23T07:41:33.477Z,57.32
2022-09-23T07:44:01.559Z,55.93
2022-09-23T07:46:31.884Z,55.61
2022-09-23T07:49:00.393Z,57.16
2022-09-23T07:51:35.490Z,56.76
2022-09-23T07:54:08.007Z,55.74
2022-09-23T07:56:37.187Z,55.49
2022-09-23T07:59:10.975Z,52.48
2022-09-23T08:01:41.535Z,53.50
2022-09-23T08:04:24.687Z,51.52
2022-09-23T08:07:00.601Z,50.10
2022-09-23T08:09:41.685Z,49.63
2022-09-23T08:12:17.510Z,48.92
2022-09-23T08:14:45.382Z,48.09
2022-09-23T08:17:14.407Z,48.60
2022-09-23T08:19:41.931Z,48.33
2022-09-23T08:22:09.754Z,47.20
2022-09-23T08:24:37.264Z,47.42
2022-09-23T08:27:04.844Z,47.33
2022-09-23T08:29:32.643Z,45.81
2022-09-23T08:32:00.292Z,45.22
2022-09-23T08:34:28.693Z,44.91
2022-09-23T08:36:56.871Z,45.10
2022-09-23T08:39:24.394Z,45.29
2022-09-23T08:42:17.433Z,43.95
2022-09-23T08:44:53.399Z,44.30
2022-09-23T08:47:27.963Z,43.42
2022-09-23T08:50:22.926Z,43.00
2022-09-23T08:53:02.827Z,43.24
2022-09-23T08:55:50.884Z,42.48
2022-09-23T08:58:29.604Z,43.72
2022-09-23T09:01:03.506Z,44.72
2022-09-23T09:03:37.195Z,45.28
2022-09-23T09:06:05.295Z,45.43
2022-09-23T09:08:36.555Z,45.37
2022-09-23T09:11:06.210Z,46.08
2022-09-23T09:13:43.324Z,45.98
2022-09-23T09:16:59.601Z,46.41
2022-09-23T09:19:47.763Z,46.10
2022-09-23T09:22:40.077Z,44.08
2022-09-23T09:25:23.678Z,43.52
2022-09-23T09:27:52.701Z,44.05
2022-09-23T09:30:20.896Z,44.35
2022-09-23T09:33:03.969Z,41.63
2022-09-23T09:35:54.971Z,40.97
2022-09-23T09:38:22.720Z,41.57
2022-09-23T09:40:50.676Z,42.50
2022-09-23T09:43:23.459Z,43.50
2022-09-23T09:46:03.304Z,41.69
2022-09-23T09:48:39.883Z,42.02
2022-09-23T09:51:25.624Z,42.91
2022-09-23T09:53:55.709Z,42.32
2022-09-23T09:56:35.414Z,43.30
2022-09-23T09:59:13.002Z,43.20
2022-09-23T10:01:41.017Z,43.50
2022-09-23T10:04:32.549Z,43.45
2022-09-23T10:07:09.467Z,43.95
2022-09-23T10:09:39.575Z,44.86
2022-09-23T10:12:15.765Z,44.45
2022-09-23T10:14:43.728Z,44.00
2022-09-23T10:17:31.871Z,45.36
2022-09-23T10:20:17.882Z,44.80
2022-09-23T10:22:46.648Z,46.23
2022-09-23T10:25:26.626Z,46.09
2022-09-23T10:27:54.273Z,45.89
2022-09-23T10:30:27.623Z,45.49
2022-09-23T10:32:56.977Z,45.76
2022-09-23T10:35:26.580Z,45.59
2022-09-23T10:37:56.209Z,47.29
2022-09-23T10:40:49.710Z,47.95
2022-09-23T10:44:07.086Z,46.27
2022-09-23T10:46:45.808Z,47.07
2022-09-23T10:49:26.302Z,45.78
2022-09-23T10:52:12.226Z,46.42
2022-09-23T10:54:58.300Z,46.42
2022-09-23T10:57:38.089Z,46.43
2022-09-23T11:00:27.559Z,46.02
2022-09-23T11:03:38.672Z,44.99
2022-09-23T11:06:18.389Z,45.28
2022-09-23T11:09:22.745Z,45.27
2022-09-23T11:11:53.231Z,43.92
2022-09-23T11:14:50.405Z,45.40
2022-09-23T11:17:48.194Z,46.08
2022-09-23T11:20:37.296Z,45.20
2022-09-23T11:23:32.206Z,45.04
2022-09-23T11:26:17.289Z,45.05
2022-09-23T11:28:45.464Z,45.98
2022-09-23T11:31:27.936Z,44.98
2022-09-23T11:34:43.754Z,44.08
2022-09-23T11:37:14.449Z,43.01
2022-09-23T11:39:57.508Z,42.89
2022-09-23T11:42:29.754Z,42.98
2022-09-23T11:45:30.745Z,43.68
2022-09-23T11:48:03.587Z,43.98
2022-09-23T11:50:47.550Z,43.93
2022-09-23T11:53:28.851Z,43.85
2022-09-23T11:56:12.669Z,43.75
2022-09-23T11:58:54.631Z,43.93
2022-09-23T12:01:37.094Z,43.05
2022-09-23T12:04:25.057Z,43.43
2022-09-23T12:07:04.144Z,44.95
2022-09-23T12:09:58.486Z,44.22
2022-09-23T12:12:49.026Z,43.90
2022-09-23T12:15:25.677Z,44.31
2022-09-23T12:17:59.339Z,44.01
2022-09-23T12:20:59.509Z,42.87
2022-09-23T12:23:36.208Z,42.58
2022-09-23T12:26:17.812Z,42.33
2022-09-23T12:28:49.913Z,41.30
2022-09-23T12:31:20.779Z,40.04
2022-09-23T12:33:53.683Z,40.41
2022-09-23T12:36:35.469Z,42.61
2022-09-23T12:39:15.605Z,41.95
2022-09-23T12:41:51.839Z,42.87
2022-09-23T12:44:39.313Z,42.06
2022-09-23T12:47:24.865Z,41.47
2022-09-23T12:49:53.506Z,41.71
2022-09-23T12:52:31.535Z,41.43
2022-09-23T12:55:24.773Z,41.72
2022-09-23T12:57:52.689Z,41.33
2022-09-23T13:00:20.216Z,43.64
2022-09-23T13:02:47.696Z,42.48
2022-09-23T13:05:40.971Z,41.91
2022-09-23T13:08:14.653Z,42.62
2022-09-23T13:10:55.785Z,42.63
2022-09-23T13:13:32.077Z,41.78
2022-09-23T13:16:25.645Z,42.30
2022-09-23T13:18:55.529Z,42.04
2022-09-23T13:21:45.885Z,41.18
2022-09-23T13:24:13.419Z,41.24
2022-09-23T13:26:45.737Z,40.49
2022-09-23T13:29:20.668Z,41.31
2022-09-23T13:31:48.666Z,41.46
2022-09-23T13:34:21.602Z,43.03
2022-09-23T13:36:49.496Z,42.78
2022-09-23T13:39:23.566Z,42.33
2022-09-23T13:42:02.997Z,41.60
2022-09-23T13:44:31.031Z,41.59
2022-09-23T13:47:02.282Z,41.49
2022-09-23T13:49:29.666Z,42.37
2022-09-23T13:51:57.737Z,41.90
2022-09-23T13:54:35.439Z,42.25
2022-09-23T13:57:03.834Z,41.47
2022-09-23T13:59:38.401Z,41.72
2022-09-23T14:02:14.435Z,41.16
2022-09-23T14:04:43.171Z,40.76
2022-09-23T14:07:13.855Z,41.10
2022-09-23T14:09:44.216Z,41.18
2022-09-23T14:12:12.366Z,41.04
2022-09-23T14:14:42.593Z,41.84
2022-09-23T14:17:18.443Z,40.64
2022-09-23T14:19:47.287Z,41.15
2022-09-23T14:22:29.494Z,39.61
2022-09-23T14:24:58.540Z,40.23
2022-09-23T14:27:32.023Z,40.86
2022-09-23T14:30:02.693Z,40.32
2022-09-23T14:32:31.142Z,39.44
2022-09-23T14:35:01.521Z,40.05
2022-09-23T14:37:48.209Z,41.32
2022-09-23T14:40:17.874Z,42.54
2022-09-23T14:42:48.136Z,42.22
2022-09-23T14:45:19.774Z,41.28
2022-09-23T14:47:51.839Z,42.44
2022-09-23T14:50:43.750Z,43.14
2022-09-23T14:53:22.434Z,41.77
2022-09-23T14:56:08.398Z,41.13
2022-09-23T14:58:54.583Z,41.79
2022-09-23T15:01:32.055Z,42.54
2022-09-23T15:04:17.444Z,43.97
2022-09-23T15:06:58.256Z,44.64
2022-09-23T15:09:33.678Z,44.37
2022-09-23T15:12:22.106Z,44.84
2022-09-23T15:14:54.073Z,45.06
2022-09-23T15:17:24.589Z,46.04
2022-09-23T15:19:56.902Z,46.56
2022-09-23T15:22:25.861Z,47.64
2022-09-23T15:25:08.023Z,46.10
2022-09-23T15:27:36.206Z,46.35
2022-09-23T15:30:18.813Z,45.40
2022-09-23T15:32:47.304Z,45.17
2022-09-23T15:35:18.789Z,45.90
2022-09-23T15:37:49.478Z,45.79
2022-09-23T15:40:20.964Z,45.64
2022-09-23T15:42:52.333Z,46.80
2022-09-23T15:45:26.285Z,46.55
2022-09-23T15:47:56.349Z,46.41
2022-09-23T15:50:24.239Z,46.43
2022-09-23T15:52:51.834Z,46.70
2022-09-23T15:55:23.632Z,46.36
2022-09-23T15:57:51.688Z,47.12
2022-09-23T16:00:19.589Z,47.00
2022-09-23T16:02:49.637Z,47.75
2022-09-23T16:05:33.164Z,50.01
2022-09-23T16:08:06.419Z,51.06
2022-09-23T16:10:37.699Z,51.77
2022-09-23T16:13:10.981Z,52.72
2022-09-23T16:15:41.693Z,52.16
2022-09-23T16:18:10.307Z,50.81
2022-09-23T16:20:44.541Z,52.01
2022-09-23T16:23:35.046Z,53.46
2022-09-23T16:26:10.740Z,54.79
2022-09-23T16:28:38.550Z,55.04
2022-09-23T16:31:06.209Z,54.63
2022-09-23T16:33:33.941Z,55.91
2022-09-23T16:36:02.175Z,55.66
2022-09-23T16:38:30.124Z,55.45
2022-09-23T16:41:00.815Z,54.67
2022-09-23T16:43:39.253Z,54.43
2022-09-23T16:46:09.083Z,53.67
2022-09-23T16:48:40.505Z,53.74
2022-09-23T16:51:08.789Z,56.88
2022-09-23T16:53:37.641Z,57.02
2022-09-23T16:56:11.014Z,57.27
2022-09-23T16:58:40.098Z,58.54
2022-09-23T17:01:31.809Z,59.38
2022-09-23T17:03:59.827Z,59.84
2022-09-23T17:06:27.998Z,57.86
2022-09-23T17:08:55.927Z,57.44
2022-09-23T17:11:23.616Z,57.74
2022-09-23T17:13:51.695Z,58.31
2022-09-23T17:16:28.179Z,56.57
2022-09-23T17:18:56.775Z,54.25
2022-09-23T17:21:26.725Z,55.10
2022-09-23T17:23:55.713Z,56.25
2022-09-23T17:26:25.586Z,56.42
2022-09-23T17:28:55.075Z,57.70
2022-09-23T17:31:25.175Z,57.45
2022-09-23T17:33:53.100Z,56.43
2022-09-23T17:36:21.457Z,58.48
2022-09-23T17:38:53.475Z,57.84
2022-09-23T17:41:22.170Z,57.63
2022-09-23T17:44:00.489Z,60.32
2022-09-23T17:46:30.148Z,62.00
2022-09-23T17:48:58.126Z,61.49
2022-09-23T17:51:25.782Z,60.29
2022-09-23T17:53:53.349Z,60.61
2022-09-23T17:56:22.729Z,61.74
2022-09-23T17:58:51.308Z,60.48
2022-09-23T18:01:24.375Z,61.88
2022-09-23T18:03:57.238Z,62.11
2022-09-23T18:06:27.671Z,60.61
2022-09-23T18:08:58.187Z,62.18
2022-09-23T18:11:30.903Z,61.61
2022-09-23T18:14:01.756Z,61.30
2022-09-23T18:16:32.007Z,62.08
2022-09-23T18:19:01.351Z,61.37
2022-09-23T18:21:32.673Z,60.65
2022-09-23T18:26:52.838Z,60.67
2022-09-23T18:29:20.673Z,61.51
2022-09-23T18:31:50.157Z,61.55
2022-09-23T18:34:18.198Z,63.04
2022-09-23T18:36:46.081Z,63.19
2022-09-23T18:39:13.740Z,60.62
2022-09-23T18:41:41.552Z,60.54
2022-09-23T18:44:10.074Z,60.12
2022-09-23T18:46:37.631Z,61.93
2022-09-23T18:49:23.741Z,61.34
2022-09-23T18:51:53.710Z,62.14
2022-09-23T18:54:22.743Z,61.84
2022-09-23T18:56:52.593Z,62.52
2022-09-23T18:59:25.137Z,61.91
2022-09-23T19:01:56.085Z,63.29
2022-09-23T19:04:26.285Z,64.16
2022-09-23T19:06:56.475Z,64.37
2022-09-23T19:09:24.795Z,63.04
2022-09-23T19:11:53.371Z,64.41
2022-09-23T19:14:21.377Z,64.49
2022-09-23T19:16:49.469Z,62.84
2022-09-23T19:19:17.091Z,63.97
2022-09-23T19:21:44.687Z,62.29
2022-09-23T19:24:15.965Z,62.22
2022-09-23T19:26:44.364Z,60.20
2022-09-23T19:29:19.529Z,60.41
2022-09-23T19:31:48.396Z,60.65
2022-09-23T19:34:24.699Z,60.86
2022-09-23T19:36:56.320Z,61.90
2022-09-23T19:39:31.122Z,61.03
2022-09-23T19:41:59.307Z,61.05
2022-09-23T19:44:27.745Z,61.65
2022-09-23T19:46:57.419Z,62.62
2022-09-23T19:49:25.984Z,63.55
2022-09-23T19:51:55.992Z,65.58
2022-09-23T19:54:27.219Z,65.00
2022-09-23T19:56:55.599Z,65.38
2022-09-23T19:59:23.317Z,65.35
2022-09-23T20:01:50.847Z,66.78
2022-09-23T20:04:18.735Z,66.83
2022-09-23T20:06:47.114Z,66.77
2022-09-23T20:09:14.634Z,65.33
2022-09-23T20:11:43.098Z,66.71
2022-09-23T20:14:10.790Z,68.79
2022-09-23T20:16:38.525Z,67.54
2022-09-23T20:19:06.502Z,65.05
2022-09-23T20:21:35.652Z,64.96
2022-09-23T20:24:07.730Z,63.47
2022-09-23T20:26:54.674Z,62.61
2022-09-23T20:29:22.225Z,64.70
2022-09-23T20:31:52.123Z,66.67
2022-09-23T20:34:21.250Z,65.80
2022-09-23T20:36:48.916Z,63.98
2022-09-23T20:39:16.780Z,63.86
2022-09-23T20:41:44.374Z,62.31
2022-09-23T20:44:14.538Z,61.65
2022-09-23T20:46:48.629Z,63.20
2022-09-23T20:49:17.683Z,62.36
2022-09-23T20:51:47.978Z,61.05
2022-09-23T20:54:19.285Z,60.75
2022-09-23T20:56:48.647Z,62.12
2022-09-23T20:59:17.782Z,62.61
2022-09-23T21:01:47.544Z,62.55
2022-09-23T21:04:15.776Z,63.41
2022-09-23T21:06:43.364Z,61.85
2022-09-23T21:09:11.016Z,61.05
2022-09-23T21:11:38.917Z,62.93
2022-09-23T21:14:06.629Z,61.08
2022-09-23T21:16:34.369Z,60.76
2022-09-23T21:19:03.345Z,59.74
2022-09-23T21:21:30.926Z,60.00
2022-09-23T21:24:17.382Z,61.10
2022-09-23T21:26:47.874Z,62.32
2022-09-23T21:29:15.367Z,62.16
2022-09-23T21:31:42.999Z,63.50
2022-09-23T21:34:12.524Z,63.23
2022-09-23T21:36:42.841Z,65.63
2022-09-23T21:39:11.935Z,65.51
2022-09-23T21:41:40.131Z,64.65
2022-09-23T21:44:08.551Z,62.76
2022-09-23T21:46:36.921Z,62.86
2022-09-23T21:49:05.349Z,64.31
2022-09-23T21:51:40.832Z,65.15
2022-09-23T21:54:14.612Z,66.16
2022-09-23T21:56:42.820Z,64.23
2022-09-23T21:59:10.696Z,66.71
2022-09-23T22:01:40.965Z,65.68
2022-09-23T22:04:17.602Z,65.73
2022-09-23T22:06:46.367Z,64.87
2022-09-23T22:09:17.733Z,64.97
2022-09-23T22:12:04.630Z,64.86
2022-09-23T22:14:32.495Z,65.44
2022-09-23T22:17:03.119Z,65.63
2022-09-23T22:19:40.255Z,66.25
2022-09-23T22:22:13.368Z,65.35
2022-09-23T22:24:48.264Z,65.56
2022-09-23T22:27:18.150Z,65.73
2022-09-23T22:30:05.569Z,64.92
2022-09-23T22:32:36.276Z,64.67
2022-09-23T22:35:04.881Z,64.78
2022-09-23T22:37:34.909Z,66.14
2022-09-23T22:40:06.678Z,66.23
2022-09-23T22:42:36.283Z,65.95
2022-09-23T22:45:05.868Z,64.94
2022-09-23T22:47:38.142Z,65.26
2022-09-23T22:50:09.171Z,66.20
2022-09-23T22:52:37.930Z,64.72
2022-09-23T22:55:08.160Z,66.18
2022-09-23T22:57:36.735Z,66.22
2022-09-23T23:00:06.717Z,65.68
2022-09-23T23:02:34.316Z,66.91
2022-09-23T23:05:02.261Z,67.47
2022-09-23T23:07:30.228Z,66.43
2022-09-23T23:09:58.214Z,67.05
2022-09-23T23:12:25.746Z,66.07
2022-09-23T23:14:53.693Z,66.91
2022-09-23T23:17:21.836Z,65.90
2022-09-23T23:19:50.611Z,64.67
2022-09-23T23:22:18.474Z,67.46
2022-09-23T23:24:45.973Z,66.59
2022-09-23T23:27:13.535Z,65.71
2022-09-23T23:29:41.407Z,65.92
2022-09-23T23:32:09.855Z,67.25
2022-09-23T23:34:37.619Z,67.53
2022-09-23T23:37:05.505Z,65.67
2022-09-23T23:39:33.871Z,67.24
2022-09-23T23:42:01.436Z,67.36
2022-09-23T23:44:31.155Z,65.90
2022-09-23T23:46:58.841Z,67.76
2022-09-23T23:49:26.444Z,65.24
2022-09-23T23:51:54.348Z,66.15
2022-09-23T23:54:22.007Z,65.33
2022-09-23T23:56:49.518Z,65.90
2022-09-23T23:59:19.691Z,66.46
